createdAt,value
2018-03-20T00:01:56.708Z,38.00
2018-03-20T00:04:22.936Z,38.00
2018-03-20T00:06:49.207Z,37.80
2018-03-20T00:09:16.208Z,38.20
2018-03-20T00:11:42.476Z,38.30
2018-03-20T00:14:09.488Z,38.30
2018-03-20T00:16:35.752Z,38.10
2018-03-20T00:19:02.777Z,38.50
2018-03-20T00:21:29.036Z,38.70
2018-03-20T00:23:56.047Z,38.20
2018-03-20T00:26:29.480Z,38.60
2018-03-20T00:28:56.480Z,38.30
2018-03-20T00:31:22.754Z,38.10
2018-03-20T00:33:49.800Z,38.70
2018-03-20T00:36:16.048Z,38.70
2018-03-20T00:38:42.308Z,39.30
2018-03-20T00:41:08.545Z,39.20
2018-03-20T00:43:34.796Z,39.50
2018-03-20T00:46:01.069Z,39.80
2018-03-20T00:48:27.315Z,39.70
2018-03-20T00:50:53.559Z,39.90
2018-03-20T00:53:19.848Z,39.90
2018-03-20T00:55:46.119Z,40.70
2018-03-20T00:58:12.396Z,40.10
2018-03-20T01:00:39.480Z,39.50
2018-03-20T01:03:05.713Z,40.60
2018-03-20T01:05:32.008Z,41.20
2018-03-20T01:07:58.977Z,42.10
2018-03-20T01:10:25.305Z,42.00
2018-03-20T01:12:51.564Z,42.50
2018-03-20T01:15:17.877Z,42.70
2018-03-20T01:17:44.115Z,41.50
2018-03-20T01:20:10.380Z,42.00
2018-03-20T01:22:36.744Z,43.60
2018-03-20T01:25:03.012Z,43.90
2018-03-20T01:27:29.687Z,44.20
2018-03-20T01:29:56.688Z,43.70
2018-03-20T01:32:22.950Z,44.00
2018-03-20T01:34:49.195Z,44.10
2018-03-20T01:37:15.427Z,44.20
2018-03-20T01:39:42.437Z,44.60
2018-03-20T01:42:08.693Z,44.90
2018-03-20T01:44:34.972Z,43.10
2018-03-20T01:47:01.231Z,45.20
2018-03-20T01:49:27.530Z,45.70
2018-03-20T01:51:53.776Z,46.20
2018-03-20T01:54:20.011Z,46.40
2018-03-20T01:56:46.273Z,46.90
2018-03-20T01:59:12.526Z,47.30
2018-03-20T02:01:38.836Z,47.30
2018-03-20T02:04:05.632Z,48.40
2018-03-20T02:06:31.960Z,46.90
2018-03-20T02:08:58.200Z,48.70
2018-03-20T02:11:24.488Z,49.20
2018-03-20T02:13:51.491Z,47.30
2018-03-20T02:16:17.737Z,48.70
2018-03-20T02:18:44.768Z,49.60
2018-03-20T02:21:11.015Z,49.60
2018-03-20T02:23:37.267Z,50.40
2018-03-20T02:26:04.302Z,51.00
2018-03-20T02:28:31.320Z,51.50
2018-03-20T02:30:57.576Z,51.30
2018-03-20T02:33:24.569Z,52.30
2018-03-20T02:35:50.817Z,52.00
2018-03-20T02:38:17.111Z,52.50
2018-03-20T02:40:43.357Z,52.50
2018-03-20T02:43:09.652Z,52.20
2018-03-20T02:45:36.660Z,53.50
2018-03-20T02:48:02.908Z,53.30
2018-03-20T02:50:29.179Z,53.60
2018-03-20T02:52:55.426Z,53.70
2018-03-20T02:55:21.677Z,53.70
2018-03-20T02:57:47.911Z,54.00
2018-03-20T03:00:14.182Z,53.90
2018-03-20T03:02:41.296Z,55.10
2018-03-20T03:05:07.603Z,55.00
2018-03-20T03:07:34.102Z,55.90
2018-03-20T03:10:00.365Z,57.00
2018-03-20T03:12:26.655Z,57.40
2018-03-20T03:14:53.662Z,57.60
2018-03-20T03:17:19.927Z,56.80
2018-03-20T03:19:46.904Z,57.10
2018-03-20T03:22:13.160Z,57.10
2018-03-20T03:24:39.415Z,57.70
2018-03-20T03:27:05.673Z,57.10
2018-03-20T03:29:31.916Z,57.10
2018-03-20T03:31:58.179Z,57.30
2018-03-20T03:34:24.431Z,57.10
2018-03-20T03:36:50.697Z,56.60
2018-03-20T03:39:16.947Z,56.60
2018-03-20T03:41:43.196Z,56.60
2018-03-20T03:44:09.453Z,56.40
2018-03-20T03:46:35.703Z,55.90
2018-03-20T03:49:02.724Z,55.90
2018-03-20T03:51:28.960Z,55.90
2018-03-20T03:53:55.203Z,55.90
2018-03-20T03:56:22.246Z,56.00
2018-03-20T03:58:48.500Z,56.20
2018-03-20T04:01:15.012Z,56.90
2018-03-20T04:03:42.004Z,57.00
2018-03-20T04:06:08.244Z,56.90
2018-03-20T04:08:34.503Z,56.80
2018-03-20T04:11:00.741Z,57.00
2018-03-20T04:13:27.745Z,56.90
2018-03-20T04:15:53.992Z,57.30
2018-03-20T04:18:20.234Z,57.40
2018-03-20T04:20:46.520Z,56.50
2018-03-20T04:23:12.775Z,57.80
2018-03-20T04:25:39.146Z,57.70
2018-03-20T04:28:05.385Z,57.70
2018-03-20T04:30:31.652Z,57.20
2018-03-20T04:32:57.959Z,56.80
2018-03-20T04:35:24.223Z,55.50
2018-03-20T04:37:50.492Z,56.30
2018-03-20T04:40:16.746Z,56.50
2018-03-20T04:42:42.991Z,57.00
2018-03-20T04:45:09.245Z,57.00
2018-03-20T04:47:35.515Z,57.20
2018-03-20T04:50:02.550Z,57.00
2018-03-20T04:52:29.566Z,57.40
2018-03-20T04:54:55.817Z,57.40
2018-03-20T04:57:22.091Z,57.90
2018-03-20T04:59:48.348Z,58.40
2018-03-20T05:02:14.616Z,58.70
2018-03-20T05:04:41.596Z,57.60
2018-03-20T05:07:07.832Z,57.70
2018-03-20T05:09:34.094Z,58.00
2018-03-20T05:12:00.348Z,57.00
2018-03-20T05:14:27.348Z,58.00
2018-03-20T05:16:53.672Z,58.00
2018-03-20T05:22:33.208Z,59.00
2018-03-20T05:24:59.630Z,60.60
2018-03-20T05:27:25.934Z,60.60
2018-03-20T05:29:52.303Z,61.50
2018-03-20T05:32:18.629Z,61.20
2018-03-20T05:34:44.900Z,61.20
2018-03-20T05:37:11.192Z,61.50
2018-03-20T05:39:37.500Z,61.00
2018-03-20T05:42:04.600Z,61.60
2018-03-20T05:44:30.900Z,60.90
2018-03-20T05:50:14.123Z,63.30
2018-03-20T05:52:40.411Z,67.20
2018-03-20T05:55:06.699Z,70.00
2018-03-20T05:57:33.675Z,74.30
2018-03-20T05:59:59.965Z,75.70
2018-03-20T06:02:26.993Z,79.30
2018-03-20T06:04:53.256Z,79.30
2018-03-20T06:07:20.269Z,84.60
2018-03-20T06:09:46.516Z,85.00
2018-03-20T06:12:12.784Z,87.30
2018-03-20T06:14:39.055Z,90.00
2018-03-20T06:17:05.319Z,90.50
2018-03-20T06:19:32.344Z,91.60
2018-03-20T06:21:58.612Z,91.50
2018-03-20T06:24:25.233Z,91.70
2018-03-20T06:26:51.503Z,92.20
2018-03-20T06:29:17.761Z,92.70
2018-03-20T06:31:44.068Z,93.20
2018-03-20T06:34:10.332Z,93.20
2018-03-20T06:39:10.988Z,94.80
2018-03-20T06:41:38.040Z,94.20
2018-03-20T06:44:05.020Z,94.80
2018-03-20T06:46:31.315Z,94.80
2018-03-20T06:48:58.324Z,96.00
2018-03-20T06:51:24.565Z,95.90
2018-03-20T06:53:50.821Z,96.10
2018-03-20T06:56:17.795Z,96.80
2018-03-20T06:58:44.048Z,96.80
2018-03-20T07:01:10.317Z,96.60
2018-03-20T07:03:36.583Z,96.70
2018-03-20T07:06:02.952Z,96.80
2018-03-20T07:08:29.227Z,97.20
2018-03-20T07:10:55.504Z,97.10
2018-03-20T07:13:21.776Z,97.40
2018-03-20T07:15:48.020Z,96.60
2018-03-20T07:18:15.030Z,96.70
2018-03-20T07:20:41.275Z,96.80
2018-03-20T07:23:07.612Z,96.50
2018-03-20T07:25:34.691Z,96.20
2018-03-20T07:28:01.656Z,96.40
2018-03-20T07:30:28.253Z,96.20
2018-03-20T07:32:54.506Z,96.70
2018-03-20T07:35:20.736Z,96.60
2018-03-20T07:37:47.001Z,96.60
2018-03-20T07:40:13.263Z,96.80
2018-03-20T07:42:40.272Z,96.90
2018-03-20T07:45:06.512Z,96.80
2018-03-20T07:47:32.774Z,97.00
2018-03-20T07:49:59.784Z,96.30
2018-03-20T07:52:26.062Z,96.40
2018-03-20T07:54:52.385Z,95.50
2018-03-20T07:57:19.388Z,94.50
2018-03-20T07:59:45.660Z,95.00
2018-03-20T08:02:12.644Z,94.70
2018-03-20T08:04:38.976Z,94.80
2018-03-20T08:07:05.228Z,94.70
2018-03-20T08:09:31.523Z,95.00
2018-03-20T08:11:57.788Z,94.60
2018-03-20T08:14:24.096Z,94.60
2018-03-20T08:16:50.377Z,94.70
2018-03-20T08:19:17.389Z,95.80
2018-03-20T08:21:43.619Z,95.70
2018-03-20T08:24:09.892Z,95.60
2018-03-20T08:26:36.891Z,95.30
2018-03-20T08:29:03.220Z,95.70
2018-03-20T08:31:29.447Z,95.70
2018-03-20T08:33:55.705Z,96.00
2018-03-20T08:36:22.077Z,96.60
2018-03-20T08:38:48.411Z,96.90
2018-03-20T08:41:14.716Z,97.00
2018-03-20T08:43:41.708Z,97.90
2018-03-20T08:46:07.952Z,97.90
2018-03-20T08:48:34.228Z,97.50
2018-03-20T08:51:01.208Z,97.40
2018-03-20T08:53:27.508Z,97.40
2018-03-20T08:55:53.797Z,97.50
2018-03-20T08:58:20.039Z,97.60
2018-03-20T09:00:46.324Z,97.70
2018-03-20T09:03:13.428Z,97.90
2018-03-20T09:05:39.692Z,97.90
2018-03-20T09:08:05.993Z,97.10
2018-03-20T09:10:33.000Z,96.40
2018-03-20T09:12:59.332Z,96.30
2018-03-20T09:15:25.603Z,95.80
2018-03-20T09:17:51.928Z,95.90
2018-03-20T09:20:18.155Z,95.50
2018-03-20T09:22:45.185Z,92.40
2018-03-20T09:25:11.463Z,92.40
2018-03-20T09:27:37.709Z,92.10
2018-03-20T09:30:04.017Z,91.90
2018-03-20T09:32:30.296Z,91.10
2018-03-20T09:34:56.542Z,90.10
2018-03-20T09:37:22.852Z,90.10
2018-03-20T09:39:49.104Z,87.80
2018-03-20T09:42:15.379Z,82.30
2018-03-20T09:44:41.620Z,80.30
2018-03-20T09:47:07.981Z,76.70
2018-03-20T09:49:34.333Z,61.90
2018-03-20T09:52:01.382Z,54.40
2018-03-20T09:54:28.432Z,55.20
2018-03-20T09:56:55.517Z,61.00
2018-03-20T09:59:22.605Z,55.50
2018-03-20T10:01:48.893Z,55.40
2018-03-20T10:04:15.167Z,55.70
2018-03-20T10:06:41.439Z,55.20
2018-03-20T10:09:07.704Z,55.00
2018-03-20T10:11:33.964Z,47.20
2018-03-20T10:14:00.228Z,45.50
2018-03-20T10:16:26.496Z,51.00
2018-03-20T10:18:52.865Z,47.40
2018-03-20T10:21:19.888Z,51.80
2018-03-20T10:23:46.245Z,51.80
2018-03-20T10:26:13.293Z,55.40
2018-03-20T10:28:40.337Z,56.00
2018-03-20T10:31:06.624Z,56.40
2018-03-20T10:33:32.914Z,54.80
2018-03-20T10:35:59.213Z,53.80
2018-03-20T10:38:25.495Z,46.20
2018-03-20T10:40:51.755Z,46.50
2018-03-20T10:43:18.078Z,53.70
2018-03-20T10:45:44.360Z,51.70
2018-03-20T10:48:11.351Z,41.10
2018-03-20T10:50:37.624Z,41.00
2018-03-20T10:53:03.937Z,43.00
2018-03-20T10:55:30.248Z,37.40
2018-03-20T10:57:56.499Z,37.20
2018-03-20T11:00:28.809Z,34.40
2018-03-20T11:02:55.156Z,36.40
2018-03-20T11:05:21.412Z,35.10
2018-03-20T11:07:48.004Z,38.40
2018-03-20T11:10:14.292Z,38.10
2018-03-20T11:12:40.558Z,38.50
2018-03-20T11:15:06.837Z,37.10
2018-03-20T11:17:33.165Z,38.80
2018-03-20T11:19:59.432Z,36.20
2018-03-20T11:22:25.681Z,36.40
2018-03-20T11:24:51.928Z,34.50
2018-03-20T11:27:18.233Z,30.30
2018-03-20T11:29:44.501Z,31.20
2018-03-20T11:32:10.787Z,31.70
2018-03-20T11:34:37.796Z,32.20
2018-03-20T11:37:04.122Z,32.10
2018-03-20T11:39:30.400Z,31.70
2018-03-20T11:41:56.680Z,31.20
2018-03-20T11:44:22.973Z,32.30
2018-03-20T11:46:49.236Z,29.30
2018-03-20T11:49:15.577Z,29.60
2018-03-20T11:51:41.872Z,30.10
2018-03-20T11:54:08.189Z,27.70
2018-03-20T11:56:34.513Z,28.40
2018-03-20T11:59:00.775Z,26.40
2018-03-20T12:01:27.067Z,27.00
2018-03-20T12:03:53.443Z,28.80
2018-03-20T12:06:19.826Z,28.20
2018-03-20T12:08:49.095Z,28.10
2018-03-20T12:11:16.180Z,27.10
2018-03-20T12:13:43.320Z,24.90
2018-03-20T12:16:09.981Z,24.60
2018-03-20T12:18:36.265Z,24.30
2018-03-20T12:21:02.572Z,23.70
2018-03-20T12:23:29.669Z,24.20
2018-03-20T12:25:56.826Z,24.40
2018-03-20T12:28:23.199Z,24.30
2018-03-20T12:30:49.563Z,24.20
2018-03-20T12:33:16.677Z,27.00
2018-03-20T12:35:43.175Z,27.00
2018-03-20T12:38:10.247Z,23.80
2018-03-20T12:40:36.649Z,23.50
2018-03-20T12:43:03.707Z,22.40
2018-03-20T12:45:30.037Z,22.50
2018-03-20T12:47:56.364Z,23.40
2018-03-20T12:50:23.385Z,22.80
2018-03-20T12:52:49.696Z,22.20
2018-03-20T12:55:15.988Z,23.50
2018-03-20T12:57:43.030Z,23.00
2018-03-20T13:00:10.084Z,23.70
2018-03-20T13:02:36.355Z,23.50
2018-03-20T13:05:02.661Z,23.20
2018-03-20T13:07:28.938Z,23.50
2018-03-20T13:09:55.200Z,23.40
2018-03-20T13:12:22.232Z,19.70
2018-03-20T13:14:48.470Z,19.60
2018-03-20T13:17:15.490Z,20.00
2018-03-20T13:19:41.745Z,20.00
2018-03-20T13:22:08.753Z,19.70
2018-03-20T13:24:35.027Z,19.80
2018-03-20T13:27:02.035Z,16.70
2018-03-20T13:29:28.357Z,16.60
2018-03-20T13:31:54.628Z,16.20
2018-03-20T13:34:21.640Z,16.70
2018-03-20T13:36:47.898Z,16.90
2018-03-20T13:39:14.167Z,16.20
2018-03-20T13:41:40.449Z,15.40
2018-03-20T13:44:06.701Z,15.70
2018-03-20T13:46:33.675Z,16.60
2018-03-20T13:48:59.943Z,16.60
2018-03-20T13:51:26.189Z,17.30
2018-03-20T13:53:53.251Z,18.40
2018-03-20T13:56:20.269Z,18.70
2018-03-20T13:58:46.684Z,18.70
2018-03-20T14:01:12.945Z,18.60
2018-03-20T14:03:39.944Z,17.50
2018-03-20T14:06:06.211Z,17.40
2018-03-20T14:08:32.484Z,15.50
2018-03-20T14:10:58.781Z,15.50
2018-03-20T14:13:25.026Z,15.70
2018-03-20T14:15:52.011Z,14.70
2018-03-20T14:18:18.286Z,14.90
2018-03-20T14:20:44.540Z,14.90
2018-03-20T14:23:11.552Z,16.60
2018-03-20T14:25:37.809Z,16.40
2018-03-20T14:28:04.076Z,17.40
2018-03-20T14:30:30.345Z,16.30
2018-03-20T14:32:56.693Z,16.20
2018-03-20T14:35:23.700Z,15.40
2018-03-20T14:37:49.987Z,15.50
2018-03-20T14:40:16.989Z,15.60
2018-03-20T14:42:43.252Z,15.40
2018-03-20T14:45:10.282Z,16.40
2018-03-20T14:47:36.653Z,16.30
2018-03-20T14:50:02.937Z,15.40
2018-03-20T14:52:29.193Z,14.90
2018-03-20T14:54:55.495Z,14.90
2018-03-20T14:57:21.768Z,14.30
2018-03-20T14:59:48.812Z,13.80
2018-03-20T15:02:15.820Z,15.00
2018-03-20T15:04:42.057Z,14.60
2018-03-20T15:15:40.190Z,15.50
2018-03-20T15:18:06.488Z,13.70
2018-03-20T15:20:32.804Z,14.60
2018-03-20T15:22:59.079Z,13.40
2018-03-20T15:25:25.409Z,14.00
2018-03-20T15:27:51.712Z,13.50
2018-03-20T15:30:18.080Z,12.20
2018-03-20T15:32:45.115Z,17.30
2018-03-20T15:35:11.372Z,16.90
2018-03-20T15:37:38.410Z,15.80
2018-03-20T15:40:05.468Z,15.90
2018-03-20T15:42:31.753Z,15.80
2018-03-20T15:44:58.027Z,15.00
2018-03-20T15:47:25.026Z,16.20
2018-03-20T15:49:51.568Z,16.20
2018-03-20T15:52:17.837Z,16.00
2018-03-20T15:54:44.109Z,16.10
2018-03-20T15:57:10.388Z,16.90
2018-03-20T15:59:37.391Z,16.90
2018-03-20T16:02:03.681Z,16.80
2018-03-20T16:04:29.948Z,17.00
2018-03-20T16:06:56.237Z,16.70
2018-03-20T16:09:23.263Z,17.60
2018-03-20T16:11:49.516Z,17.10
2018-03-20T16:14:16.547Z,17.20
2018-03-20T16:16:43.601Z,17.20
2018-03-20T16:19:09.866Z,17.10
2018-03-20T16:21:36.149Z,16.60
2018-03-20T16:24:02.403Z,15.70
2018-03-20T16:26:28.711Z,15.60
2018-03-20T16:28:55.737Z,16.00
2018-03-20T16:31:22.057Z,15.30
2018-03-20T16:33:48.328Z,15.30
2018-03-20T16:36:15.341Z,15.20
2018-03-20T16:38:41.629Z,15.30
2018-03-20T16:41:07.885Z,15.80
2018-03-20T16:43:34.170Z,15.70
2018-03-20T16:46:01.186Z,18.50
2018-03-20T16:48:27.447Z,18.50
2018-03-20T16:50:53.769Z,17.70
2018-03-20T16:53:20.964Z,17.30
2018-03-20T16:55:47.228Z,17.10
2018-03-20T16:58:13.553Z,17.70
2018-03-20T17:00:39.808Z,17.70
2018-03-20T17:03:06.836Z,18.30
2018-03-20T17:05:33.096Z,18.80
2018-03-20T17:08:00.079Z,19.00
2018-03-20T17:10:26.369Z,18.90
2018-03-20T17:12:53.456Z,19.80
2018-03-20T17:15:19.717Z,19.80
2018-03-20T17:17:45.980Z,19.70
2018-03-20T17:20:12.989Z,20.40
2018-03-20T17:22:39.300Z,20.20
2018-03-20T17:25:06.268Z,20.50
2018-03-20T17:27:32.546Z,20.20
2018-03-20T17:29:59.108Z,20.50
2018-03-20T17:32:25.417Z,20.20
2018-03-20T17:34:51.677Z,19.80
2018-03-20T17:37:17.971Z,19.10
2018-03-20T17:39:44.225Z,18.80
2018-03-20T17:42:10.480Z,20.00
2018-03-20T17:44:36.763Z,19.90
2018-03-20T17:47:03.049Z,20.00
2018-03-20T17:49:29.566Z,20.30
2018-03-20T17:51:55.839Z,20.60
2018-03-20T17:54:22.126Z,20.90
2018-03-20T17:56:48.380Z,20.50
2018-03-20T17:59:14.857Z,20.90
2018-03-20T18:01:41.215Z,21.00
2018-03-20T18:04:07.493Z,21.40
2018-03-20T18:06:34.567Z,22.00
2018-03-20T18:09:00.841Z,21.90
2018-03-20T18:11:27.299Z,22.20
2018-03-20T18:13:54.598Z,22.70
2018-03-20T18:16:21.160Z,22.80
2018-03-20T18:18:48.212Z,22.90
2018-03-20T18:21:14.689Z,22.70
2018-03-20T18:23:41.774Z,23.20
2018-03-20T18:26:08.471Z,23.20
2018-03-20T18:28:35.512Z,23.90
2018-03-20T18:31:02.819Z,24.10
2018-03-20T18:33:29.323Z,23.90
2018-03-20T18:35:55.813Z,24.30
2018-03-20T18:38:22.248Z,24.40
2018-03-20T18:40:48.676Z,24.60
2018-03-20T18:43:15.551Z,24.90
2018-03-20T18:45:42.776Z,25.40
2018-03-20T18:48:09.086Z,25.30
2018-03-20T18:50:35.392Z,25.40
2018-03-20T18:53:01.680Z,25.80
2018-03-20T18:55:28.525Z,25.90
2018-03-20T18:57:55.018Z,26.70
2018-03-20T19:00:21.631Z,26.40
2018-03-20T19:02:49.075Z,25.90
2018-03-20T19:05:15.385Z,26.00
2018-03-20T19:07:41.649Z,26.10
2018-03-20T19:10:07.905Z,26.20
2018-03-20T19:12:34.375Z,26.40
2018-03-20T19:15:02.011Z,26.10
2018-03-20T19:17:29.024Z,26.40
2018-03-20T19:19:55.413Z,26.30
2018-03-20T19:22:21.694Z,26.60
2018-03-20T19:24:47.993Z,26.80
2018-03-20T19:27:15.073Z,26.60
2018-03-20T19:29:41.617Z,26.40
2018-03-20T19:32:07.898Z,26.40
2018-03-20T19:34:34.153Z,26.60
2018-03-20T19:37:01.231Z,26.80
2018-03-20T19:39:27.499Z,26.80
2018-03-20T19:41:53.821Z,27.00
2018-03-20T19:44:20.085Z,27.30
2018-03-20T19:46:46.345Z,27.10
2018-03-20T19:49:12.618Z,27.30
2018-03-20T19:51:38.881Z,27.20
2018-03-20T19:54:05.199Z,27.10
2018-03-20T19:56:32.188Z,27.50
2018-03-20T19:58:58.458Z,27.50
2018-03-20T20:01:24.744Z,27.30
2018-03-20T20:03:51.205Z,27.50
2018-03-20T20:06:17.498Z,27.60
2018-03-20T20:08:44.500Z,28.20
2018-03-20T20:11:11.542Z,28.70
2018-03-20T20:13:38.088Z,28.70
2018-03-20T20:16:05.104Z,29.30
2018-03-20T20:18:31.351Z,29.20
2018-03-20T20:20:57.622Z,29.70
2018-03-20T20:23:31.051Z,29.20
2018-03-20T20:25:57.359Z,29.80
2018-03-20T20:28:23.609Z,29.90
2018-03-20T20:30:49.872Z,30.40
2018-03-20T20:33:16.173Z,30.80
2018-03-20T20:35:42.434Z,31.50
2018-03-20T20:38:08.977Z,32.20
2018-03-20T20:40:35.226Z,32.20
2018-03-20T20:43:01.484Z,32.80
2018-03-20T20:45:27.772Z,33.30
2018-03-20T20:47:54.794Z,35.70
2018-03-20T20:50:21.101Z,35.60
2018-03-20T20:52:47.388Z,36.40
2018-03-20T20:55:14.453Z,37.20
2018-03-20T20:57:40.723Z,37.10
2018-03-20T21:00:06.976Z,37.90
2018-03-20T21:02:34.122Z,39.50
2018-03-20T21:05:00.399Z,39.40
2018-03-20T21:07:26.664Z,40.20
2018-03-20T21:09:52.941Z,40.10
2018-03-20T21:12:19.197Z,40.30
2018-03-20T21:14:45.800Z,40.70
2018-03-20T21:17:12.789Z,41.40
2018-03-20T21:19:39.050Z,41.40
2018-03-20T21:22:05.309Z,42.40
2018-03-20T21:24:31.568Z,42.60
2018-03-20T21:26:57.854Z,43.00
2018-03-20T21:29:24.852Z,43.50
2018-03-20T21:31:51.154Z,43.30
2018-03-20T21:34:17.413Z,43.20
2018-03-20T21:36:43.736Z,43.50
2018-03-20T21:39:10.012Z,43.60
2018-03-20T21:41:37.042Z,43.50
2018-03-20T21:44:03.778Z,43.70
2018-03-20T21:46:30.026Z,43.30
2018-03-20T21:48:56.292Z,43.60
2018-03-20T21:51:22.631Z,44.40
2018-03-20T21:53:48.861Z,44.20
2018-03-20T21:56:15.495Z,44.30
2018-03-20T21:58:41.748Z,45.20
2018-03-20T22:01:08.021Z,45.90
2018-03-20T22:03:34.332Z,45.80
2018-03-20T22:06:00.590Z,46.50
2018-03-20T22:08:27.613Z,47.00
2018-03-20T22:10:53.921Z,46.80
2018-03-20T22:13:20.188Z,46.30
2018-03-20T22:15:47.210Z,47.00
2018-03-20T22:18:13.551Z,46.70
2018-03-20T22:20:39.887Z,47.30
2018-03-20T22:23:06.156Z,48.30
2018-03-20T22:25:32.490Z,48.70
2018-03-20T22:27:58.817Z,49.10
2018-03-20T22:30:25.135Z,49.50
2018-03-20T22:32:51.377Z,49.60
2018-03-20T22:35:17.646Z,50.20
2018-03-20T22:37:43.900Z,50.60
2018-03-20T22:40:10.418Z,50.70
2018-03-20T22:42:36.689Z,50.70
2018-03-20T22:45:03.777Z,52.10
2018-03-20T22:47:30.805Z,51.90
2018-03-20T22:49:57.049Z,51.80
2018-03-20T22:52:23.324Z,52.20
2018-03-20T22:54:50.397Z,52.70
2018-03-20T22:57:17.762Z,52.60
2018-03-20T22:59:44.020Z,52.50
2018-03-20T23:02:10.397Z,53.00
2018-03-20T23:04:37.398Z,54.30
2018-03-20T23:07:03.653Z,54.00
2018-03-20T23:09:30.101Z,53.50
2018-03-20T23:11:56.357Z,54.00
2018-03-20T23:14:22.605Z,54.30
2018-03-20T23:16:48.900Z,54.60
2018-03-20T23:19:15.200Z,55.20
2018-03-20T23:21:41.481Z,54.80
2018-03-20T23:24:07.736Z,55.80
2018-03-20T23:26:34.002Z,56.10
2018-03-20T23:29:01.737Z,55.90
2018-03-20T23:31:28.064Z,56.10
2018-03-20T23:33:54.381Z,55.70
2018-03-20T23:36:20.637Z,55.10
2018-03-20T23:38:47.621Z,56.00
2018-03-20T23:41:14.628Z,56.50
2018-03-20T23:43:41.020Z,56.10
2018-03-20T23:46:07.261Z,57.00
2018-03-20T23:48:33.516Z,56.90
2018-03-20T23:50:59.752Z,56.50
2018-03-20T23:53:26.022Z,57.30
2018-03-20T23:55:53.053Z,58.50
2018-03-20T23:58:19.293Z,59.00
